Observations for EDINBURGH AIRPORT, United Kingdom (EGPH)

EGPH 230950Z 26011KT 9999 FEW030 15/08 Q1027
EGPH 230920Z 26010KT 230V310 9999 FEW030 15/08 Q1027
EGPH 230850Z 26011KT 9999 FEW030 14/08 Q1027
EGPH 230820Z 26007KT 230V290 9999 FEW035 13/09 Q1028
EGPH 230750Z 25010KT 9999 FEW032 12/08 Q1028
EGPH 230720Z 25009KT 9999 FEW035 11/08 Q1028
EGPH 230650Z 25009KT 9999 FEW035 11/08 Q1028
EGPH 230620Z 26007KT 9999 FEW035 11/08 Q1028
EGPH 230550Z 25007KT CAVOK 10/08 Q1028  
EGPH 230520Z 24009KT CAVOK 09/08 Q1027  
EGPH 230450Z 24007KT CAVOK 09/08 Q1028  
EGPH 230420Z 24009KT CAVOK 09/08 Q1028  
EGPH 230350Z 23006KT CAVOK 08/07 Q1028  
EGPH 230320Z 25006KT CAVOK 08/07 Q1028  
EGPH 230250Z 25006KT CAVOK 08/07 Q1028  
EGPH 230220Z 26006KT CAVOK 08/07 Q1028  
EGPH 230150Z 22008KT CAVOK 08/08 Q1028  
EGPH 230120Z 24007KT CAVOK 07/06 Q1029  
EGPH 230050Z 23006KT CAVOK 08/07 Q1029  
EGPH 230020Z 24007KT CAVOK 09/07 Q1029  
EGPH 222350Z 24007KT CAVOK 10/07 Q1029  
EGPH 222320Z 25007KT CAVOK 11/08 Q1029  
EGPH 222250Z 26007KT CAVOK 11/08 Q1029  
EGPH 222220Z 26007KT CAVOK 12/08 Q1029  
EGPH 222150Z 26010KT CAVOK 12/08 Q1029  
EGPH 222120Z 25008KT CAVOK 12/08 Q1029  
EGPH 222050Z 26009KT CAVOK 13/08 Q1029  
EGPH 222020Z 26008KT CAVOK 14/08 Q1029  
EGPH 221950Z 26010KT CAVOK 15/08 Q1028  
EGPH 221920Z 26008KT CAVOK 16/09 Q1028  
EGPH 221850Z 25009KT CAVOK 16/09 Q1028  
EGPH 221820Z 25008KT CAVOK 16/09 Q1028  
EGPH 221750Z 26010KT 9999 FEW040 16/09 Q1029
EGPH 221720Z 26012KT 9999 FEW034 17/09 Q1029
EGPH 221650Z 27010KT 9999 FEW033 18/10 Q1029
EGPH 221620Z 27009KT 240V330 9999 FEW037 19/10 Q1029
EGPH 221550Z 28008KT 250V320 9999 SCT037 18/10 Q1029
EGPH 221520Z 26010KT 230V310 9999 FEW039 19/09 Q1029
EGPH 221450Z 28008KT 220V320 9999 SCT039 18/10 Q1029
EGPH 221420Z 31005KT 250V360 9999 FEW041 18/09 Q1029
EGPH 221350Z 33005KT 260V030 9999 FEW043 17/08 Q1030
EGPH 221320Z 28005KT 210V360 CAVOK 18/08 Q1030  
EGPH 221250Z 27008KT 230V310 CAVOK 17/07 Q1030  
EGPH 221220Z 33007KT 270V010 CAVOK 16/07 Q1030  
EGPH 221150Z 32007KT 270V360 CAVOK 15/06 Q1031  
EGPH 221120Z 30007KT 250V360 CAVOK 17/08 Q1031  
EGPH 221050Z 29008KT 250V330 CAVOK 17/07 Q1030  
EGPH 221020Z 27007KT 230V320 CAVOK 16/07 Q1030  
EGPH 220950Z 26007KT 220V290 CAVOK 16/06 Q1031